Terminal Aerodrome Forecast
Issued by NWS

Home | Current Version | Previous Version | Text Only | Print | Product List | Glossary On
Versions: 1 2 3 4 5 6 7 8 9 10 11 12 13 14 15 16 17 18 19 20
000
FTUS41 KBTV 311100
TAFSLK
TAF
KSLK 311122Z 3112/0112 VRB03KT P6SM SCT040 BKN080
     FM311400 22007KT 6SM -SHRA VCTS BKN035CB OVC060
     FM311900 23007KT P6SM VCSH BKN040
     FM010000 22004KT P6SM SCT040
     FM010600 VRB02KT 1SM BR BKN002=

USA.gov is the U.S. government's official web portal to all federal, state and local government web resources and services.